CST,Max TemperatureF,Mean TemperatureF,Min TemperatureF,Max Dew PointF,MeanDew PointF,Min DewpointF,Max Humidity, Mean Humidity, Min Humidity, Max Sea Level PressureIn, Mean Sea Level PressureIn, Min Sea Level PressureIn, Max VisibilityMiles, Mean VisibilityMiles, Min VisibilityMiles, Max Wind SpeedMPH, Mean Wind SpeedMPH, Max Gust SpeedMPH,PrecipitationIn, CloudCover, Events, WindDirDegrees
2012-11-1,33,30,28,30,25,23,93,83,75,30.17,30.15,30.09,10,10,10,22,15,25,0.00,8,,357
2012-11-2,33,30,28,30,26,25,100,85,70,30.19,30.18,30.15,10,8,1,8,5,,0.11,7,Snow,96
2012-11-3,35,32,30,34,30,28,100,92,81,30.25,30.22,30.19,10,9,2,7,5,,0.01,8,Snow,62
2012-11-4,39,34,30,36,32,28,100,90,81,30.24,30.22,30.19,10,10,10,9,6,,0.00,7,,107
2012-11-5,41,37,33,37,34,32,100,94,81,30.24,30.01,29.64,10,7,2,25,8,29,0.21,7,Rain-Snow,175
2012-11-6,41,38,35,39,37,36,100,94,87,30.01,29.83,29.64,10,9,2,26,15,36,0.02,8,Rain-Snow,323
2012-11-7,42,35,28,39,36,28,100,95,81,30.06,29.95,29.75,10,9,0,18,7,23,0.00,4,Fog-Rain,152
2012-11-8,42,35,28,39,33,25,100,88,75,30.24,29.98,29.71,10,10,7,25,17,32,0.03,7,Rain,346
2012-11-9,30,28,26,25,21,19,86,76,69,30.26,30.18,30.03,10,10,10,21,14,26,0.00,7,,49
2012-11-10,32,30,28,32,28,19,100,94,64,30.02,29.76,29.46,10,6,1,22,15,28,0.14,8,Snow,58
2012-11-11,26,22,19,27,20,16,100,89,80,29.75,29.66,29.53,10,9,1,16,12,18,0.04,7,Snow,281
2012-11-12,21,16,12,18,15,9,100,89,79,30.12,29.96,29.75,10,7,2,21,14,28,0.00,6,Snow,282
2012-11-13,21,16,10,16,13,7,100,88,74,30.25,30.19,30.12,10,10,5,10,5,,0.00,2,,201
2012-11-14,33,20,8,30,21,7,100,95,87,30.23,30.09,29.95,10,5,0,18,5,22,0.00,2,Fog,164
2012-11-15,28,21,14,27,16,10,100,83,68,30.44,30.31,29.98,10,10,7,14,8,,0.00,0,,276
2012-11-16,35,26,17,27,21,14,93,81,65,30.40,30.21,30.06,10,10,10,25,15,32,0.00,1,,165
2012-11-17,32,26,21,30,26,19,100,92,80,30.10,30.06,30.03,10,9,5,10,5,,0.00,2,,141
2012-11-18,42,30,19,39,31,18,100,93,81,30.04,29.95,29.86,10,8,2,13,4,,0.00,0,,128
2012-11-19,37,32,24,36,31,25,100,93,81,30.14,30.01,29.85,10,6,4,12,7,,0.00,0,,265
2012-11-20,39,32,24,36,30,23,100,94,87,30.13,29.98,29.83,10,7,2,20,10,24,0.00,0,,163
2012-11-21,41,36,30,37,33,28,100,95,87,29.87,29.75,29.54,10,8,4,12,4,,0.00,0,,94
2012-11-22,33,24,14,32,21,10,100,93,79,30.25,29.88,29.54,10,5,1,31,20,41,0.00,8,Snow,327
2012-11-23,17,12,6,14,11,3,92,85,79,30.47,30.41,30.26,10,7,2,28,17,34,0.00,8,Snow,330
2012-11-24,24,14,5,21,13,3,93,89,79,30.35,29.97,29.76,10,9,1,23,11,32,0.00,7,Snow,179
2012-11-25,24,14,3,21,11,0,93,83,73,30.29,30.03,29.87,10,8,1,25,10,30,0.00,5,Snow,320
2012-11-26,24,12,0,21,6,-4,93,85,78,30.38,30.27,30.10,10,9,1,17,8,,0.00,4,Snow,224
2012-11-27,26,13,0,25,10,-2,93,83,68,30.25,30.16,30.09,10,9,2,14,6,,0.00,5,Snow,349
2012-11-28,30,16,1,28,14,0,93,88,73,30.26,30.15,30.02,10,9,4,21,7,29,0.00,5,Snow,216
2012-11-29,17,14,10,10,7,3,85,74,68,30.29,30.24,30.21,10,10,10,17,12,21,0.00,6,,59
2012-11-30,32,24,17,30,22,10,100,92,73,30.22,30.05,29.81,10,6,2,22,13,29,0.00,8,,138